Time;durP1;ratioP1;P1;durP2;ratioP2;P2;SDS_P1;SDS_P2;PMS_P1;PMS_P2;Temp;Humidity;BMP_temperature;BMP_pressure;BME280_temperature;BME280_humidity;BME280_pressure;Samples;Min_cycle;Max_cycle;Signal;HPM_P1;HPM_P2
2023/09/23 00:03:10;;;;;;;0.50;0.25;;;;;;;17.06;100.00;100592.50;10374147;28;20132;-82
2023/09/23 00:08:12;;;;;;;0.25;0.20;;;;;;;17.33;100.00;100593.19;10366488;28;20056;-82
2023/09/23 00:13:14;;;;;;;1.38;0.73;;;;;;;17.31;100.00;100599.28;10357810;28;20049;-82
2023/09/23 00:18:17;;;;;;;0.88;0.75;;;;;;;17.24;100.00;100608.88;10375495;28;20037;-82
2023/09/23 00:23:20;;;;;;;0.30;0.30;;;;;;;17.20;100.00;100608.03;10374475;28;20402;-82
2023/09/23 00:28:30;;;;;;;0.50;0.50;;;;;;;17.34;100.00;100620.97;10388587;28;20053;-82
2023/09/23 00:33:37;;;;;;;0.45;0.30;;;;;;;17.06;100.00;100615.94;10373510;28;20263;-82
2023/09/23 00:38:40;;;;;;;0.32;0.28;;;;;;;17.02;100.00;100610.75;10368190;28;20077;-82
2023/09/23 00:43:42;;;;;;;0.47;0.28;;;;;;;17.06;100.00;100625.47;10350158;28;20069;-82
2023/09/23 00:48:44;;;;;;;1.02;0.40;;;;;;;17.03;100.00;100628.94;10380856;28;20053;-82
2023/09/23 00:53:47;;;;;;;0.43;0.20;;;;;;;16.93;100.00;100627.28;10389506;28;20053;-82
2023/09/23 00:58:50;;;;;;;0.63;0.30;;;;;;;17.27;100.00;100640.09;10383835;28;20046;-82
2023/09/23 01:03:53;;;;;;;0.30;0.30;;;;;;;17.26;100.00;100654.88;10372596;28;20108;-81
2023/09/23 01:08:57;;;;;;;0.20;0.20;;;;;;;16.99;100.00;100660.19;10355608;28;20049;-82
2023/09/23 01:13:59;;;;;;;0.47;0.45;;;;;;;16.66;100.00;100655.09;10387170;28;20448;-82
2023/09/23 01:19:00;;;;;;;0.13;0.13;;;;;;;16.67;100.00;100680.22;10368729;28;20572;-82
2023/09/23 01:24:02;;;;;;;0.10;0.10;;;;;;;16.71;100.00;100692.38;10369921;28;20056;-82
2023/09/23 01:29:04;;;;;;;0.10;0.10;;;;;;;15.81;100.00;100694.16;10376898;28;20062;-81
2023/09/23 01:34:06;;;;;;;0.10;0.08;;;;;;;15.82;100.00;100699.34;10374460;28;20390;-81
2023/09/23 01:39:09;;;;;;;0.20;0.13;;;;;;;15.64;100.00;100696.72;10390916;28;20049;-81
2023/09/23 01:44:11;;;;;;;0.00;0.00;;;;;;;15.54;100.00;100694.09;10375846;28;20408;-82
2023/09/23 01:49:12;;;;;;;0.17;0.13;;;;;;;15.63;100.00;100707.97;10355032;28;20074;-81
2023/09/23 01:54:16;;;;;;;0.47;0.10;;;;;;;15.43;100.00;100708.81;10380678;28;20540;-82
2023/09/23 01:59:17;;;;;;;0.08;0.08;;;;;;;15.63;100.00;100723.56;10370405;28;20042;-81
2023/09/23 02:04:19;;;;;;;0.43;0.43;;;;;;;15.50;100.00;100717.47;10381633;28;20050;-82
2023/09/23 02:09:21;;;;;;;0.75;0.30;;;;;;;15.35;100.00;100723.50;10387860;28;20344;-82
2023/09/23 02:14:23;;;;;;;0.00;0.00;;;;;;;15.73;100.00;100714.94;10372821;28;20382;-82
2023/09/23 02:19:25;;;;;;;0.30;0.13;;;;;;;14.98;100.00;100718.16;10356060;28;20146;-81
2023/09/23 02:24:28;;;;;;;0.63;0.20;;;;;;;15.43;100.00;100721.78;10380453;28;20046;-82
2023/09/23 02:29:33;;;;;;;0.25;0.10;;;;;;;15.21;100.00;100715.66;10383002;28;20477;-81
2023/09/23 02:34:36;;;;;;;9.95;0.43;;;;;;;15.80;100.00;100729.66;10389573;28;20053;-81
2023/09/23 02:39:38;;;;;;;0.75;0.43;;;;;;;15.22;100.00;100727.75;10391229;28;20049;-82
2023/09/23 02:44:40;;;;;;;0.30;0.28;;;;;;;16.30;100.00;100721.91;10370832;28;20049;-82
2023/09/23 02:49:44;;;;;;;1.05;0.77;;;;;;;15.76;100.00;100724.47;10386882;28;20547;-82
2023/09/23 02:54:47;;;;;;;0.82;0.68;;;;;;;16.25;100.00;100739.25;10387981;28;20054;-82
2023/09/23 02:59:56;;;;;;;0.70;0.47;;;;;;;15.66;100.00;100713.19;10362742;28;20046;-82
2023/09/23 03:04:58;;;;;;;1.15;0.65;;;;;;;16.05;100.00;100724.50;10388029;28;20088;-82
2023/09/23 03:10:03;;;;;;;1.85;1.05;;;;;;;15.99;100.00;100735.78;10370419;28;20046;-82
2023/09/23 03:15:14;;;;;;;1.17;0.70;;;;;;;15.92;100.00;100741.84;10373712;28;20053;-82
2023/09/23 03:20:23;;;;;;;2.78;1.65;;;;;;;15.57;100.00;100741.72;10352892;28;20547;-82
2023/09/23 03:25:25;;;;;;;1.95;1.10;;;;;;;15.72;100.00;100741.75;10364868;28;20445;-82
2023/09/23 03:30:27;;;;;;;3.47;1.02;;;;;;;16.01;100.00;100740.97;10359790;28;20092;-82
2023/09/23 03:35:34;;;;;;;1.48;0.93;;;;;;;15.43;100.00;100747.75;10376054;28;20152;-82
2023/09/23 03:40:39;;;;;;;1.52;0.63;;;;;;;15.94;100.00;100760.00;10367592;28;20041;-82
2023/09/23 03:45:42;;;;;;;3.03;1.35;;;;;;;16.17;100.00;100779.09;10387325;28;20053;-82
2023/09/23 03:50:44;;;;;;;1.33;1.00;;;;;;;16.08;100.00;100776.50;10357339;28;20485;-82
2023/09/23 03:55:49;;;;;;;2.97;1.10;;;;;;;15.70;100.00;100792.81;10350419;28;20406;-82
2023/09/23 04:00:50;;;;;;;0.57;0.45;;;;;;;16.31;100.00;100799.88;10383395;28;20360;-82
2023/09/23 04:05:57;;;;;;;1.33;1.05;;;;;;;15.85;100.00;100779.06;10382137;28;20144;-81
2023/09/23 04:11:10;;;;;;;3.22;1.23;;;;;;;15.75;100.00;100780.72;10389621;28;20061;-82
2023/09/23 04:16:12;;;;;;;3.47;1.50;;;;;;;15.97;100.00;100786.00;10375892;28;20046;-82
2023/09/23 04:21:13;;;;;;;1.55;1.20;;;;;;;16.31;100.00;100802.47;10360319;28;20513;-83
2023/09/23 04:26:15;;;;;;;2.33;1.90;;;;;;;15.71;100.00;100799.75;10389223;28;20128;-83
2023/09/23 04:31:18;;;;;;;1.88;1.05;;;;;;;16.29;100.00;100814.63;10376348;28;20096;-82
2023/09/23 04:36:21;;;;;;;2.15;1.20;;;;;;;15.91;100.00;100819.75;10390247;28;20493;-82
2023/09/23 04:41:23;;;;;;;2.80;1.50;;;;;;;15.87;100.00;100826.66;10400089;28;20403;-82
2023/09/23 04:46:24;;;;;;;1.27;0.75;;;;;;;16.24;100.00;100836.28;10374502;28;20108;-81
2023/09/23 04:51:26;;;;;;;1.95;1.08;;;;;;;15.90;100.00;100826.69;10396189;28;20054;-81
2023/09/23 04:56:27;;;;;;;3.38;1.73;;;;;;;16.20;100.00;100834.53;10355168;28;20041;-81
2023/09/23 05:01:30;;;;;;;1.13;0.50;;;;;;;16.37;100.00;100848.44;10357864;28;20041;-82
2023/09/23 05:06:32;;;;;;;1.13;0.68;;;;;;;16.27;100.00;100857.09;10388905;28;20076;-81
2023/09/23 05:11:35;;;;;;;0.93;0.63;;;;;;;16.36;100.00;100867.50;10385649;28;20046;-82
2023/09/23 05:16:37;;;;;;;1.27;0.60;;;;;;;15.77;100.00;100875.09;10392628;28;20686;-81
2023/09/23 05:21:39;;;;;;;6.13;1.27;;;;;;;15.94;100.00;100870.00;10367917;28;20537;-81
2023/09/23 05:26:40;;;;;;;3.90;1.33;;;;;;;16.00;100.00;100884.75;10376791;28;20481;-82
2023/09/23 05:31:42;;;;;;;1.23;0.63;;;;;;;15.99;100.00;100893.41;10372689;28;20042;-84
2023/09/23 05:36:43;;;;;;;1.02;0.73;;;;;;;16.31;100.00;100911.69;10384010;28;20169;-82
2023/09/23 05:41:47;;;;;;;1.25;0.98;;;;;;;16.45;100.00;100922.13;10371416;28;20045;-81
2023/09/23 05:46:49;;;;;;;1.48;1.00;;;;;;;16.33;100.00;100938.56;10354679;28;20056;-84
2023/09/23 05:51:54;;;;;;;1.88;1.10;;;;;;;16.54;100.00;100946.41;10379980;28;20124;-83
2023/09/23 05:56:55;;;;;;;0.82;0.73;;;;;;;16.54;100.00;100943.81;10388408;28;20561;-83
2023/09/23 06:01:57;;;;;;;1.65;0.98;;;;;;;16.04;100.00;100943.66;10376774;28;20496;-84
2023/09/23 06:06:59;;;;;;;3.20;1.10;;;;;;;16.21;100.00;100948.03;10389376;28;20092;-86
2023/09/23 06:12:01;;;;;;;1.48;0.82;;;;;;;16.73;100.00;100968.97;10359992;28;20104;-84
2023/09/23 06:17:03;;;;;;;0.90;0.77;;;;;;;16.30;100.00;100971.47;10373934;28;20053;-84
2023/09/23 06:22:05;;;;;;;1.35;0.90;;;;;;;16.05;100.00;100980.91;10362251;28;20042;-84
2023/09/23 06:27:06;;;;;;;2.22;0.65;;;;;;;16.12;100.00;100993.91;10371649;28;20057;-84
2023/09/23 06:32:08;;;;;;;1.20;0.50;;;;;;;16.35;100.00;101016.53;10351600;28;20046;-83
2023/09/23 06:37:10;;;;;;;0.60;0.55;;;;;;;16.75;100.00;101023.63;10368594;28;20135;-84
2023/09/23 06:42:12;;;;;;;1.73;0.98;;;;;;;16.86;100.00;101034.91;10383724;28;20049;-84
2023/09/23 06:47:14;;;;;;;2.75;0.45;;;;;;;16.54;100.00;101040.03;10363327;28;20165;-85
2023/09/23 06:52:15;;;;;;;0.57;0.57;;;;;;;16.70;100.00;101041.81;10381582;28;20057;-84
2023/09/23 06:57:17;;;;;;;0.47;0.47;;;;;;;16.67;100.00;101044.41;10383205;28;20057;-85
2023/09/23 07:02:19;;;;;;;1.65;1.38;;;;;;;16.61;100.00;101052.19;10368408;28;20553;-84
2023/09/23 07:07:21;;;;;;;0.28;0.28;;;;;;;16.49;100.00;101061.66;10367142;28;20046;-85
2023/09/23 07:12:23;;;;;;;1.73;0.35;;;;;;;17.22;100.00;101063.63;10366092;28;20042;-84
2023/09/23 07:17:26;;;;;;;0.70;0.63;;;;;;;16.41;100.00;101063.41;10375253;28;20064;-84
2023/09/23 07:22:28;;;;;;;1.38;0.82;;;;;;;16.79;100.00;101070.44;10365643;28;20038;-85
2023/09/23 07:27:29;;;;;;;3.55;1.15;;;;;;;16.57;100.00;101074.72;10380137;28;20519;-84
2023/09/23 07:32:31;;;;;;;2.70;0.57;;;;;;;17.35;100.00;101081.00;10364736;28;20061;-84
2023/09/23 07:37:33;;;;;;;0.13;0.13;;;;;;;17.22;100.00;101097.47;10352999;28;20036;-85
2023/09/23 07:42:35;;;;;;;1.55;0.95;;;;;;;17.44;100.00;101107.06;10362617;28;20038;-85
2023/09/23 07:47:36;;;;;;;0.50;0.50;;;;;;;16.84;100.00;101119.03;10376003;28;20302;-84
2023/09/23 07:52:40;;;;;;;0.43;0.32;;;;;;;17.12;100.00;101135.66;10365848;28;20066;-85
2023/09/23 07:57:42;;;;;;;1.67;1.15;;;;;;;18.25;100.00;101138.28;10370404;28;20041;-84
2023/09/23 08:02:43;;;;;;;1.33;0.50;;;;;;;18.70;100.00;101139.03;10354297;28;20046;-84
2023/09/23 08:07:45;;;;;;;0.65;0.38;;;;;;;18.69;100.00;101152.09;10380442;28;20058;-85
2023/09/23 08:12:47;;;;;;;3.13;0.63;;;;;;;18.98;100.00;101157.19;10385571;28;20097;-84
2023/09/23 08:17:49;;;;;;;0.52;0.52;;;;;;;19.08;100.00;101167.59;10366983;28;20385;-85
2023/09/23 08:22:51;;;;;;;0.20;0.20;;;;;;;18.33;100.00;101162.63;10346093;28;20559;-84
2023/09/23 08:27:56;;;;;;;0.32;0.30;;;;;;;18.34;100.00;101174.78;10378247;28;20778;-83
2023/09/23 08:32:58;;;;;;;0.68;0.52;;;;;;;17.42;100.00;101186.06;10346559;28;20486;-83
2023/09/23 08:38:00;;;;;;;0.50;0.50;;;;;;;17.87;100.00;101184.34;10370620;28;20116;-86
2023/09/23 08:43:04;;;;;;;0.57;0.20;;;;;;;18.58;100.00;101193.00;10381834;28;20046;-85
2023/09/23 08:48:07;;;;;;;0.65;0.65;;;;;;;18.45;100.00;101197.34;10379573;28;20057;-85
2023/09/23 08:53:10;;;;;;;0.30;0.30;;;;;;;17.55;100.00;101213.88;10368203;28;20045;-85
2023/09/23 08:58:13;;;;;;;2.50;1.23;;;;;;;18.69;100.00;101207.75;10371425;28;20092;-85
2023/09/23 09:03:15;;;;;;;0.68;0.68;;;;;;;19.42;100.00;101214.41;10387832;28;20038;-85
2023/09/23 09:08:18;;;;;;;0.30;0.30;;;;;;;18.73;100.00;101208.59;10365857;28;20052;-84
2023/09/23 09:13:20;;;;;;;0.38;0.25;;;;;;;19.11;100.00;101218.06;10362385;28;20052;-85
2023/09/23 09:18:21;;;;;;;0.73;0.73;;;;;;;18.81;100.00;101232.06;10386248;28;20417;-84
2023/09/23 09:23:30;;;;;;;0.25;0.22;;;;;;;19.68;100.00;101236.91;10365188;28;20401;-84
2023/09/23 09:28:32;;;;;;;0.10;0.10;;;;;;;21.12;100.00;101244.31;10385058;28;20523;-86
2023/09/23 09:33:36;;;;;;;0.30;0.20;;;;;;;18.85;100.00;101244.25;10386105;28;20052;-85
2023/09/23 09:38:41;;;;;;;2.22;0.35;;;;;;;18.76;100.00;101252.97;10359291;28;20505;-85
2023/09/23 09:43:45;;;;;;;0.13;0.00;;;;;;;18.92;100.00;101261.66;10346146;28;20470;-85
2023/09/23 09:48:48;;;;;;;0.28;0.28;;;;;;;19.58;100.00;101264.84;10349672;28;20054;-85
2023/09/23 09:53:51;;;;;;;0.30;0.22;;;;;;;19.35;100.00;101263.25;10385424;28;20050;-85
2023/09/23 09:58:55;;;;;;;0.10;0.10;;;;;;;19.67;100.00;101275.25;10384136;28;20508;-85
2023/09/23 10:03:56;;;;;;;0.30;0.10;;;;;;;20.78;100.00;101281.38;10368115;28;20052;-85
2023/09/23 10:08:58;;;;;;;0.45;0.20;;;;;;;19.96;100.00;101285.56;10387468;28;20050;-87
2023/09/23 10:14:20;;;;;;;0.00;0.00;;;;;;;19.87;100.00;101285.59;10331779;28;20057;-84
2023/09/23 10:19:29;;;;;;;0.25;0.20;;;;;;;19.89;100.00;101289.09;10359533;28;20401;-85
2023/09/23 10:24:34;;;;;;;0.75;0.20;;;;;;;20.37;100.00;101295.69;10367150;28;20491;-85
2023/09/23 10:29:45;;;;;;;0.77;0.30;;;;;;;19.86;100.00;101299.56;10366946;28;20054;-85
2023/09/23 10:34:53;;;;;;;0.22;0.22;;;;;;;19.46;100.00;101312.81;10358415;28;20058;-84
2023/09/23 10:39:58;;;;;;;0.98;0.70;;;;;;;19.43;100.00;101315.44;10366688;28;20496;-84
2023/09/23 10:45:00;;;;;;;0.00;0.00;;;;;;;18.94;100.00;101308.63;10394348;28;20074;-84
2023/09/23 10:50:06;;;;;;;0.20;0.10;;;;;;;19.39;100.00;101314.59;10380609;28;20060;-84
2023/09/23 10:55:09;;;;;;;0.05;0.03;;;;;;;19.50;100.00;101311.94;10368947;28;20136;-84
2023/09/23 11:00:20;;;;;;;0.10;0.00;;;;;;;20.96;100.00;101316.97;10365149;28;20058;-84
2023/09/23 11:05:22;;;;;;;0.20;0.17;;;;;;;20.34;100.00;101327.13;10359979;28;20052;-83
2023/09/23 11:10:27;;;;;;;0.10;0.10;;;;;;;20.34;100.00;101332.34;10365060;28;20464;-83
2023/09/23 11:15:29;;;;;;;0.55;0.30;;;;;;;19.36;100.00;101330.25;10364271;28;20132;-84
2023/09/23 11:20:32;;;;;;;0.30;0.30;;;;;;;19.60;100.00;101345.00;10349450;28;20053;-83
2023/09/23 11:25:41;;;;;;;0.32;0.10;;;;;;;19.58;100.00;101346.72;10360152;28;20060;-83
2023/09/23 11:30:43;;;;;;;1.50;0.77;;;;;;;19.58;100.00;101367.63;10364169;28;20058;-83
2023/09/23 11:35:45;;;;;;;0.35;0.22;;;;;;;19.65;100.00;101374.56;10363737;28;20057;-83
2023/09/23 11:40:47;;;;;;;0.10;0.10;;;;;;;20.48;100.00;101372.38;10361389;28;20125;-83
2023/09/23 11:45:49;;;;;;;0.00;0.00;;;;;;;20.45;100.00;101382.84;10378107;28;20065;-84
2023/09/23 11:50:51;;;;;;;0.40;0.20;;;;;;;21.84;100.00;101385.84;10363899;28;20053;-84
2023/09/23 11:55:53;;;;;;;0.70;0.38;;;;;;;20.64;100.00;101390.56;10360602;28;20052;-84
2023/09/23 12:00:56;;;;;;;4.13;2.08;;;;;;;21.34;100.00;101393.41;10365304;28;20417;-84
2023/09/23 12:05:58;;;;;;;0.10;0.10;;;;;;;20.52;100.00;101407.25;10355126;28;20050;-83
2023/09/23 12:11:00;;;;;;;0.60;0.43;;;;;;;20.94;100.00;101412.16;10347909;28;20078;-83
2023/09/23 12:16:02;;;;;;;1.25;1.10;;;;;;;21.84;100.00;101415.56;10362699;28;20057;-84
2023/09/23 12:21:04;;;;;;;0.00;0.00;;;;;;;21.30;100.00;101420.53;10377585;28;20595;-84
2023/09/23 12:26:06;;;;;;;0.35;0.13;;;;;;;20.45;100.00;101425.59;10383269;28;20079;-83
2023/09/23 12:31:07;;;;;;;0.15;0.13;;;;;;;20.05;100.00;101433.69;10373104;28;20038;-83
2023/09/23 12:36:09;;;;;;;0.20;0.20;;;;;;;19.74;100.00;101444.25;10363129;28;20057;-83
2023/09/23 12:41:11;;;;;;;0.20;0.20;;;;;;;20.92;100.00;101441.84;10385312;28;20045;-84
2023/09/23 12:46:12;;;;;;;0.10;0.10;;;;;;;21.04;100.00;101445.22;10371060;28;20123;-85
2023/09/23 12:51:15;;;;;;;0.60;0.40;;;;;;;21.23;100.00;101454.69;10364066;28;20149;-84
2023/09/23 12:56:18;;;;;;;0.10;0.00;;;;;;;21.17;100.00;101454.75;10394395;28;20213;-84
2023/09/23 13:01:20;;;;;;;0.20;0.20;;;;;;;20.66;100.00;101460.34;10371799;28;20408;-84
2023/09/23 13:06:21;;;;;;;2.78;1.02;;;;;;;21.28;100.00;101475.59;10378796;28;20128;-84
2023/09/23 13:11:23;;;;;;;0.82;0.43;;;;;;;20.64;100.00;101479.56;10354828;28;20048;-84
2023/09/23 13:16:25;;;;;;;0.10;0.10;;;;;;;20.61;100.00;101483.94;10384112;28;20086;-84
2023/09/23 13:21:27;;;;;;;0.35;0.35;;;;;;;21.04;100.00;101492.38;10371682;28;20049;-84
2023/09/23 13:26:28;;;;;;;0.43;0.30;;;;;;;20.59;100.00;101496.16;10364002;28;20057;-84
2023/09/23 13:31:30;;;;;;;0.50;0.30;;;;;;;21.27;100.00;101491.31;10387493;28;20471;-84
2023/09/23 13:36:32;;;;;;;0.10;0.10;;;;;;;21.21;100.00;101495.75;10386974;28;20045;-84
2023/09/23 13:41:34;;;;;;;0.47;0.45;;;;;;;22.32;100.00;101498.00;10386542;28;20046;-84
2023/09/23 13:46:36;;;;;;;0.10;0.10;;;;;;;22.20;100.00;101499.03;10388708;28;20734;-84
2023/09/23 13:51:38;;;;;;;0.82;0.75;;;;;;;21.18;100.00;101508.88;10369847;28;20056;-84
2023/09/23 13:56:40;;;;;;;0.70;0.15;;;;;;;21.02;100.00;101509.88;10368250;28;20046;-84
2023/09/23 14:01:41;;;;;;;0.40;0.40;;;;;;;20.74;100.00;101525.78;10384501;28;20058;-84
2023/09/23 14:06:43;;;;;;;0.15;0.15;;;;;;;20.72;100.00;101532.75;10387083;28;20049;-84
2023/09/23 14:11:45;;;;;;;0.10;0.10;;;;;;;20.54;100.00;101529.38;10386394;28;20133;-84
2023/09/23 14:16:47;;;;;;;0.90;0.60;;;;;;;20.47;100.00;101525.03;10383302;28;20144;-83
2023/09/23 14:21:49;;;;;;;0.20;0.15;;;;;;;20.53;100.00;101530.25;10382599;28;20080;-84
2023/09/23 14:26:50;;;;;;;0.15;0.15;;;;;;;20.99;100.00;101536.09;10346832;28;20053;-83
2023/09/23 14:31:52;;;;;;;0.20;0.20;;;;;;;21.42;100.00;101535.72;10368913;28;20045;-84
2023/09/23 14:36:54;;;;;;;0.32;0.30;;;;;;;21.49;100.00;101542.66;10382780;28;20053;-84
2023/09/23 14:41:55;;;;;;;0.03;0.00;;;;;;;20.71;100.00;101546.72;10366499;28;20045;-85
2023/09/23 14:46:57;;;;;;;0.03;0.03;;;;;;;20.68;100.00;101559.81;10366170;28;20053;-84
2023/09/23 14:51:59;;;;;;;0.00;0.00;;;;;;;20.54;100.00;101555.53;10381794;28;20066;-83
2023/09/23 14:57:00;;;;;;;0.00;0.00;;;;;;;20.54;100.00;101571.25;10366621;28;20041;-84
2023/09/23 15:02:03;;;;;;;0.00;0.00;;;;;;;20.39;100.00;101576.53;10364427;28;20400;-84
2023/09/23 15:07:05;;;;;;;0.00;0.00;;;;;;;20.51;100.00;101581.75;10349962;28;20050;-84
2023/09/23 15:12:08;;;;;;;0.03;0.03;;;;;;;20.69;100.00;101579.91;10382387;28;20042;-84
2023/09/23 15:17:11;;;;;;;0.00;0.00;;;;;;;20.76;100.00;101592.09;10382075;28;20053;-85
2023/09/23 15:22:13;;;;;;;0.00;0.00;;;;;;;20.39;100.00;101603.59;10366019;28;20042;-85
2023/09/23 15:27:14;;;;;;;0.22;0.13;;;;;;;20.29;100.00;101607.97;10369736;28;20049;-84
2023/09/23 15:32:16;;;;;;;0.05;0.00;;;;;;;19.97;100.00;101616.81;10357110;28;20531;-84
2023/09/23 15:37:18;;;;;;;0.00;0.00;;;;;;;19.85;100.00;101614.19;10386470;28;20141;-83
2023/09/23 15:42:20;;;;;;;0.40;0.10;;;;;;;20.38;100.00;101624.53;10359237;28;20046;-84
2023/09/23 15:47:27;;;;;;;0.10;0.10;;;;;;;19.88;100.00;101623.78;10364454;28;20048;-84
2023/09/23 15:52:29;;;;;;;2.25;0.95;;;;;;;20.14;100.00;101636.81;10370015;28;20604;-84
2023/09/23 15:57:31;;;;;;;0.00;0.00;;;;;;;20.07;100.00;101642.91;10385137;28;20050;-83
2023/09/23 16:02:33;;;;;;;0.20;0.10;;;;;;;19.85;100.00;101650.78;10374445;28;20069;-85
2023/09/23 16:07:35;;;;;;;0.08;0.08;;;;;;;19.46;100.00;101639.47;10375671;28;20100;-84
2023/09/23 16:12:37;;;;;;;0.43;0.10;;;;;;;19.07;100.00;101636.75;10347435;28;20058;-84
2023/09/23 16:17:38;;;;;;;0.30;0.30;;;;;;;19.32;100.00;101639.44;10376465;28;20033;-83
2023/09/23 16:22:40;;;;;;;0.10;0.10;;;;;;;19.72;100.00;101656.88;10376557;28;20088;-83
2023/09/23 16:27:43;;;;;;;0.20;0.20;;;;;;;19.88;100.00;101669.09;10361585;28;20046;-83
2023/09/23 16:32:45;;;;;;;2.00;0.30;;;;;;;20.17;100.00;101676.03;10372914;28;20245;-83
2023/09/23 16:37:47;;;;;;;0.35;0.20;;;;;;;19.92;100.00;101686.53;10368438;28;20053;-84
2023/09/23 16:42:49;;;;;;;0.10;0.10;;;;;;;19.79;100.00;101690.00;10379352;28;20034;-84
2023/09/23 16:47:50;;;;;;;0.00;0.00;;;;;;;19.83;100.00;101696.97;10391404;28;20489;-83
2023/09/23 16:52:53;;;;;;;0.10;0.10;;;;;;;19.78;100.00;101701.31;10382323;28;20042;-84
2023/09/23 16:57:54;;;;;;;0.00;0.00;;;;;;;20.03;100.00;101714.44;10382830;28;20103;-84
2023/09/23 17:02:56;;;;;;;10.05;0.25;;;;;;;20.15;100.00;101724.88;10361664;28;20486;-82
2023/09/23 17:07:58;;;;;;;0.30;0.20;;;;;;;19.92;100.00;101728.38;10388575;28;20049;-83
2023/09/23 17:13:00;;;;;;;0.00;0.00;;;;;;;20.34;100.00;101740.56;10375183;28;20038;-83
2023/09/23 17:18:01;;;;;;;0.10;0.10;;;;;;;20.23;100.00;101743.19;10372927;28;20046;-83
2023/09/23 17:23:03;;;;;;;0.00;0.00;;;;;;;20.28;100.00;101750.16;10369626;28;20132;-84
2023/09/23 17:28:05;;;;;;;0.38;0.08;;;;;;;20.29;100.00;101759.75;10384653;28;20050;-83
2023/09/23 17:33:07;;;;;;;0.65;0.08;;;;;;;20.02;100.00;101770.22;10359522;28;20054;-83
2023/09/23 17:38:08;;;;;;;0.30;0.28;;;;;;;19.92;100.00;101759.75;10385112;28;20049;-84
2023/09/23 17:43:10;;;;;;;0.17;0.17;;;;;;;19.63;100.00;101768.41;10376480;28;20049;-83
2023/09/23 17:48:12;;;;;;;0.00;0.00;;;;;;;19.25;100.00;101766.53;10380921;28;20751;-84
2023/09/23 17:53:14;;;;;;;0.20;0.20;;;;;;;19.76;100.00;101784.13;10366780;28;20041;-84
2023/09/23 17:58:15;;;;;;;0.00;0.00;;;;;;;19.76;100.00;101794.59;10368055;28;20046;-83
2023/09/23 18:03:17;;;;;;;0.15;0.00;;;;;;;19.81;100.00;101809.38;10354955;28;20409;-84
2023/09/23 18:08:19;;;;;;;0.10;0.10;;;;;;;19.92;100.00;101822.50;10379855;28;20053;-83
2023/09/23 18:13:21;;;;;;;0.20;0.20;;;;;;;19.74;100.00;101827.69;10370173;28;20129;-83
2023/09/23 18:18:26;;;;;;;0.10;0.10;;;;;;;19.71;100.00;101830.28;10370612;28;20530;-83
2023/09/23 18:23:28;;;;;;;0.20;0.20;;;;;;;19.53;100.00;101834.59;10369667;28;20528;-83
2023/09/23 18:28:30;;;;;;;0.00;0.00;;;;;;;19.61;100.00;101848.56;10372002;28;20107;-84
2023/09/23 18:33:32;;;;;;;0.17;0.10;;;;;;;19.36;100.00;101855.41;10370952;28;20041;-84
2023/09/23 18:38:33;;;;;;;0.10;0.10;;;;;;;19.36;100.00;101867.63;10352914;28;20074;-84
2023/09/23 18:43:35;;;;;;;0.00;0.00;;;;;;;19.39;100.00;101885.94;10351728;28;20088;-83
2023/09/23 18:48:37;;;;;;;0.00;0.00;;;;;;;19.49;100.00;101901.66;10384900;28;20523;-84
2023/09/23 18:53:38;;;;;;;0.05;0.05;;;;;;;19.13;100.00;101912.78;10365431;28;20042;-84
2023/09/23 18:58:40;;;;;;;0.00;0.00;;;;;;;19.22;100.00;101922.41;10357447;28;20121;-84
2023/09/23 19:03:42;;;;;;;0.00;0.00;;;;;;;18.27;100.00;101913.81;10357134;28;20041;-84
2023/09/23 19:08:44;;;;;;;0.10;0.10;;;;;;;18.79;100.00;101918.59;10384131;28;20069;-83
2023/09/23 19:13:46;;;;;;;0.00;0.00;;;;;;;18.99;100.00;101930.94;10368230;28;20225;-84
2023/09/23 19:18:49;;;;;;;0.00;0.00;;;;;;;18.82;100.00;101941.25;10384916;28;20046;-84
2023/09/23 19:23:50;;;;;;;0.00;0.00;;;;;;;18.39;100.00;101945.22;10349796;28;20057;-84
2023/09/23 19:28:52;;;;;;;0.00;0.00;;;;;;;18.54;100.00;101961.88;10383042;28;20046;-84
2023/09/23 19:33:54;;;;;;;0.03;0.03;;;;;;;17.95;100.00;101963.84;10380932;28;20048;-83
2023/09/23 19:38:56;;;;;;;0.00;0.00;;;;;;;17.90;100.00;101962.91;10368626;28;20053;-84
2023/09/23 19:43:57;;;;;;;0.00;0.00;;;;;;;18.12;100.00;101976.22;10342133;28;20046;-83
2023/09/23 19:48:59;;;;;;;0.00;0.00;;;;;;;18.43;100.00;101992.22;10365724;28;20058;-83
2023/09/23 19:54:02;;;;;;;0.00;0.00;;;;;;;18.36;100.00;101996.50;10380491;28;20584;-83
2023/09/23 19:59:04;;;;;;;0.00;0.00;;;;;;;18.41;100.00;101993.94;10367081;28;20056;-84
2023/09/23 20:04:06;;;;;;;0.00;0.00;;;;;;;18.47;100.00;102007.03;10376461;28;20614;-83
2023/09/23 20:09:09;;;;;;;0.00;0.00;;;;;;;18.59;100.00;102009.75;10361194;28;20046;-83
2023/09/23 20:14:12;;;;;;;0.28;0.28;;;;;;;18.72;100.00;102008.16;10383815;28;20049;-83
2023/09/23 20:19:14;;;;;;;0.00;0.00;;;;;;;18.63;100.00;102021.13;10368210;28;20472;-83
2023/09/23 20:24:16;;;;;;;0.03;0.03;;;;;;;18.61;100.00;102028.06;10369395;28;20053;-83
2023/09/23 20:29:18;;;;;;;0.22;0.13;;;;;;;18.60;100.00;102032.41;10380274;28;20054;-83
2023/09/23 20:34:19;;;;;;;0.08;0.08;;;;;;;18.58;100.00;102035.84;10368958;28;20038;-83
2023/09/23 20:39:22;;;;;;;0.00;0.00;;;;;;;18.62;100.00;102038.53;10370096;28;20056;-83
2023/09/23 20:44:24;;;;;;;0.00;0.00;;;;;;;18.52;100.00;102047.09;10372698;28;20128;-83
2023/09/23 20:49:26;;;;;;;0.43;0.32;;;;;;;18.85;100.00;102058.78;10390359;28;20466;-83
2023/09/23 20:54:28;;;;;;;0.00;0.00;;;;;;;18.45;100.00;102058.31;10353737;28;20050;-83
2023/09/23 20:59:29;;;;;;;0.15;0.15;;;;;;;18.82;100.00;102069.16;10389578;28;20041;-83
2023/09/23 21:04:31;;;;;;;0.00;0.00;;;;;;;18.64;100.00;102072.47;10383949;28;20056;-83
2023/09/23 21:09:33;;;;;;;0.00;0.00;;;;;;;18.79;100.00;102080.47;10396026;28;20515;-83
2023/09/23 21:14:34;;;;;;;0.10;0.05;;;;;;;18.36;100.00;102080.84;10372786;28;20038;-83
2023/09/23 21:19:36;;;;;;;0.43;0.25;;;;;;;18.75;100.00;102088.22;10370346;28;20489;-83
2023/09/23 21:24:38;;;;;;;0.15;0.10;;;;;;;18.96;100.00;102096.31;10353750;28;20049;-83
2023/09/23 21:29:39;;;;;;;0.03;0.00;;;;;;;18.41;100.00;102090.47;10389021;28;20505;-83
2023/09/23 21:34:41;;;;;;;0.00;0.00;;;;;;;18.25;100.00;102095.50;10349116;28;20050;-84
2023/09/23 21:39:43;;;;;;;0.08;0.00;;;;;;;18.05;100.00;102096.13;10368417;28;20053;-83
2023/09/23 21:44:45;;;;;;;0.10;0.10;;;;;;;17.74;100.00;102098.22;10356088;28;20053;-83
2023/09/23 21:49:46;;;;;;;0.30;0.30;;;;;;;17.55;100.00;102104.00;10382280;28;20489;-83
2023/09/23 21:54:48;;;;;;;0.00;0.00;;;;;;;18.08;100.00;102116.13;10385505;28;20053;-83
2023/09/23 21:59:50;;;;;;;0.20;0.20;;;;;;;17.58;100.00;102104.91;10366699;28;20041;-83
2023/09/23 22:04:51;;;;;;;0.10;0.10;;;;;;;17.10;100.00;102106.72;10380734;28;20048;-83
2023/09/23 22:09:53;;;;;;;0.30;0.20;;;;;;;16.91;100.00;102099.41;10371341;28;20513;-83
2023/09/23 22:14:55;;;;;;;0.32;0.20;;;;;;;17.26;100.00;102101.78;10369665;28;20092;-83
2023/09/23 22:19:58;;;;;;;0.57;0.30;;;;;;;17.62;100.00;102111.06;10382114;28;20049;-82
2023/09/23 22:25:00;;;;;;;0.05;0.05;;;;;;;16.99;100.00;102122.97;10383189;28;20050;-83
2023/09/23 22:30:05;;;;;;;0.13;0.13;;;;;;;16.58;100.00;102116.09;10361923;28;20049;-83
2023/09/23 22:35:10;;;;;;;0.75;0.32;;;;;;;16.98;100.00;102122.13;10365941;28;20141;-82
2023/09/23 22:40:37;;;;;;;0.13;0.13;;;;;;;17.34;100.00;102136.66;10364030;28;20115;-82
2023/09/23 22:45:39;;;;;;;0.00;0.00;;;;;;;17.42;100.00;102147.22;10374579;28;20486;-82
2023/09/23 22:50:41;;;;;;;0.20;0.10;;;;;;;16.83;100.00;102134.81;10385453;28;20405;-82
2023/09/23 22:55:42;;;;;;;0.30;0.17;;;;;;;17.03;100.00;102145.63;10371515;28;20042;-82